sensor_id;sensor_type;location;lat;lon;timestamp;P1;durP1;ratioP1;P2;durP2;ratioP2
16906;SDS011;8570;52.380;4.654;2022-09-09T00:01:03;10.05;;;4.35;;
16906;SDS011;8570;52.380;4.654;2022-09-09T00:06:16;6.47;;;3.40;;
16906;SDS011;8570;52.380;4.654;2022-09-09T00:11:24;6.30;;;4.18;;
16906;SDS011;8570;52.380;4.654;2022-09-09T00:16:32;6.75;;;3.70;;
16906;SDS011;8570;52.380;4.654;2022-09-09T00:21:46;7.10;;;3.70;;
16906;SDS011;8570;52.380;4.654;2022-09-09T00:26:55;5.57;;;3.13;;
16906;SDS011;8570;52.380;4.654;2022-09-09T00:32:09;8.15;;;3.58;;
16906;SDS011;8570;52.380;4.654;2022-09-09T00:37:16;5.65;;;4.00;;
16906;SDS011;8570;52.380;4.654;2022-09-09T00:42:23;5.47;;;4.20;;
16906;SDS011;8570;52.380;4.654;2022-09-09T00:47:32;6.30;;;4.40;;
16906;SDS011;8570;52.380;4.654;2022-09-09T00:52:44;7.10;;;5.03;;
16906;SDS011;8570;52.380;4.654;2022-09-09T00:57:52;9.70;;;6.13;;
16906;SDS011;8570;52.380;4.654;2022-09-09T01:08:50;11.80;;;6.93;;
16906;SDS011;8570;52.380;4.654;2022-09-09T01:14:19;9.60;;;6.82;;
16906;SDS011;8570;52.380;4.654;2022-09-09T01:19:33;8.45;;;6.40;;
16906;SDS011;8570;52.380;4.654;2022-09-09T01:25:01;12.18;;;6.82;;
16906;SDS011;8570;52.380;4.654;2022-09-09T01:30:21;13.10;;;7.22;;
16906;SDS011;8570;52.380;4.654;2022-09-09T01:35:28;15.30;;;7.80;;
16906;SDS011;8570;52.380;4.654;2022-09-09T01:40:37;10.98;;;8.23;;
16906;SDS011;8570;52.380;4.654;2022-09-09T01:45:58;11.68;;;8.63;;
16906;SDS011;8570;52.380;4.654;2022-09-09T01:51:08;11.98;;;9.25;;
16906;SDS011;8570;52.380;4.654;2022-09-09T01:56:19;12.68;;;9.00;;
16906;SDS011;8570;52.380;4.654;2022-09-09T02:01:35;12.52;;;9.43;;
16906;SDS011;8570;52.380;4.654;2022-09-09T02:06:49;15.57;;;10.38;;
16906;SDS011;8570;52.380;4.654;2022-09-09T02:11:57;11.23;;;8.75;;
16906;SDS011;8570;52.380;4.654;2022-09-09T02:17:13;14.75;;;9.90;;
16906;SDS011;8570;52.380;4.654;2022-09-09T02:22:20;12.57;;;10.02;;
16906;SDS011;8570;52.380;4.654;2022-09-09T02:27:30;15.63;;;9.90;;
16906;SDS011;8570;52.380;4.654;2022-09-09T02:32:34;12.30;;;9.93;;
16906;SDS011;8570;52.380;4.654;2022-09-09T02:37:40;19.65;;;11.27;;
16906;SDS011;8570;52.380;4.654;2022-09-09T02:42:47;13.73;;;10.82;;
16906;SDS011;8570;52.380;4.654;2022-09-09T02:47:53;15.57;;;11.52;;
16906;SDS011;8570;52.380;4.654;2022-09-09T02:53:04;14.15;;;10.68;;
16906;SDS011;8570;52.380;4.654;2022-09-09T02:58:12;13.57;;;11.13;;
16906;SDS011;8570;52.380;4.654;2022-09-09T03:03:20;16.65;;;11.02;;
16906;SDS011;8570;52.380;4.654;2022-09-09T03:08:24;12.25;;;10.63;;
16906;SDS011;8570;52.380;4.654;2022-09-09T03:13:30;12.50;;;9.70;;
16906;SDS011;8570;52.380;4.654;2022-09-09T03:18:34;13.73;;;9.43;;
16906;SDS011;8570;52.380;4.654;2022-09-09T03:23:36;10.02;;;9.02;;
16906;SDS011;8570;52.380;4.654;2022-09-09T03:28:43;13.88;;;8.32;;
16906;SDS011;8570;52.380;4.654;2022-09-09T03:33:48;10.10;;;7.93;;
16906;SDS011;8570;52.380;4.654;2022-09-09T03:38:53;10.50;;;7.50;;
16906;SDS011;8570;52.380;4.654;2022-09-09T03:43:56;8.77;;;7.80;;
16906;SDS011;8570;52.380;4.654;2022-09-09T03:48:59;8.85;;;7.95;;
16906;SDS011;8570;52.380;4.654;2022-09-09T03:54:02;13.75;;;7.40;;
16906;SDS011;8570;52.380;4.654;2022-09-09T03:59:10;8.30;;;7.47;;
16906;SDS011;8570;52.380;4.654;2022-09-09T04:04:13;11.23;;;8.15;;
16906;SDS011;8570;52.380;4.654;2022-09-09T04:09:18;10.95;;;8.45;;
16906;SDS011;8570;52.380;4.654;2022-09-09T04:14:20;12.90;;;8.27;;
16906;SDS011;8570;52.380;4.654;2022-09-09T04:19:24;9.98;;;8.00;;
16906;SDS011;8570;52.380;4.654;2022-09-09T04:24:26;13.30;;;7.97;;
16906;SDS011;8570;52.380;4.654;2022-09-09T04:29:29;8.98;;;7.13;;
16906;SDS011;8570;52.380;4.654;2022-09-09T04:34:35;11.73;;;8.23;;
16906;SDS011;8570;52.380;4.654;2022-09-09T04:39:37;10.15;;;8.05;;
16906;SDS011;8570;52.380;4.654;2022-09-09T04:44:39;13.55;;;8.15;;
16906;SDS011;8570;52.380;4.654;2022-09-09T04:49:49;11.48;;;7.45;;
16906;SDS011;8570;52.380;4.654;2022-09-09T04:54:51;9.55;;;7.65;;
16906;SDS011;8570;52.380;4.654;2022-09-09T04:59:55;9.45;;;7.32;;
16906;SDS011;8570;52.380;4.654;2022-09-09T05:05:00;12.27;;;7.70;;
16906;SDS011;8570;52.380;4.654;2022-09-09T05:10:03;9.68;;;6.78;;
16906;SDS011;8570;52.380;4.654;2022-09-09T05:15:06;9.90;;;6.10;;
16906;SDS011;8570;52.380;4.654;2022-09-09T05:20:12;7.72;;;5.93;;
16906;SDS011;8570;52.380;4.654;2022-09-09T05:25:14;9.18;;;6.10;;
16906;SDS011;8570;52.380;4.654;2022-09-09T05:30:21;7.78;;;5.32;;
16906;SDS011;8570;52.380;4.654;2022-09-09T05:35:29;10.50;;;5.35;;
16906;SDS011;8570;52.380;4.654;2022-09-09T05:40:33;8.93;;;4.80;;
16906;SDS011;8570;52.380;4.654;2022-09-09T05:45:38;14.75;;;5.10;;
16906;SDS011;8570;52.380;4.654;2022-09-09T05:50:52;10.73;;;5.28;;
16906;SDS011;8570;52.380;4.654;2022-09-09T05:55:59;8.63;;;4.93;;
16906;SDS011;8570;52.380;4.654;2022-09-09T06:01:03;8.93;;;4.45;;
16906;SDS011;8570;52.380;4.654;2022-09-09T06:06:08;10.13;;;4.68;;
16906;SDS011;8570;52.380;4.654;2022-09-09T06:11:13;10.93;;;4.40;;
16906;SDS011;8570;52.380;4.654;2022-09-09T06:16:19;7.32;;;3.88;;
16906;SDS011;8570;52.380;4.654;2022-09-09T06:21:25;8.25;;;4.30;;
16906;SDS011;8570;52.380;4.654;2022-09-09T06:26:30;11.90;;;4.15;;
16906;SDS011;8570;52.380;4.654;2022-09-09T06:31:35;11.20;;;4.30;;
16906;SDS011;8570;52.380;4.654;2022-09-09T06:36:39;6.75;;;3.85;;
16906;SDS011;8570;52.380;4.654;2022-09-09T06:41:41;8.30;;;3.90;;
16906;SDS011;8570;52.380;4.654;2022-09-09T06:46:44;8.85;;;4.30;;
16906;SDS011;8570;52.380;4.654;2022-09-09T06:51:49;7.93;;;3.88;;
16906;SDS011;8570;52.380;4.654;2022-09-09T06:56:54;8.85;;;3.90;;
16906;SDS011;8570;52.380;4.654;2022-09-09T07:01:55;8.93;;;4.07;;
16906;SDS011;8570;52.380;4.654;2022-09-09T07:06:59;5.70;;;3.70;;
16906;SDS011;8570;52.380;4.654;2022-09-09T07:12:01;12.90;;;4.18;;
16906;SDS011;8570;52.380;4.654;2022-09-09T07:17:06;8.57;;;3.72;;
16906;SDS011;8570;52.380;4.654;2022-09-09T07:22:09;10.07;;;3.80;;
16906;SDS011;8570;52.380;4.654;2022-09-09T07:27:11;11.43;;;4.30;;
16906;SDS011;8570;52.380;4.654;2022-09-09T07:32:13;8.65;;;4.55;;
16906;SDS011;8570;52.380;4.654;2022-09-09T07:37:16;12.65;;;4.80;;
16906;SDS011;8570;52.380;4.654;2022-09-09T07:42:18;13.98;;;4.50;;
16906;SDS011;8570;52.380;4.654;2022-09-09T07:47:20;9.35;;;4.70;;
16906;SDS011;8570;52.380;4.654;2022-09-09T07:52:26;9.57;;;4.40;;
16906;SDS011;8570;52.380;4.654;2022-09-09T07:57:28;9.77;;;4.85;;
16906;SDS011;8570;52.380;4.654;2022-09-09T08:02:30;11.93;;;4.38;;
16906;SDS011;8570;52.380;4.654;2022-09-09T08:07:33;13.45;;;4.97;;
16906;SDS011;8570;52.380;4.654;2022-09-09T08:12:35;13.23;;;4.53;;
16906;SDS011;8570;52.380;4.654;2022-09-09T08:17:37;9.35;;;4.32;;
16906;SDS011;8570;52.380;4.654;2022-09-09T08:22:40;14.40;;;4.70;;
16906;SDS011;8570;52.380;4.654;2022-09-09T08:27:43;11.05;;;4.95;;
16906;SDS011;8570;52.380;4.654;2022-09-09T08:32:45;8.60;;;4.55;;
16906;SDS011;8570;52.380;4.654;2022-09-09T08:37:48;11.73;;;5.07;;
16906;SDS011;8570;52.380;4.654;2022-09-09T08:42:55;10.20;;;4.65;;
16906;SDS011;8570;52.380;4.654;2022-09-09T08:48:03;10.88;;;4.40;;
16906;SDS011;8570;52.380;4.654;2022-09-09T08:53:19;12.82;;;4.45;;
16906;SDS011;8570;52.380;4.654;2022-09-09T08:58:25;12.38;;;4.35;;
16906;SDS011;8570;52.380;4.654;2022-09-09T09:03:31;10.82;;;5.07;;
16906;SDS011;8570;52.380;4.654;2022-09-09T09:08:42;7.80;;;4.13;;
16906;SDS011;8570;52.380;4.654;2022-09-09T09:13:50;20.73;;;4.57;;
16906;SDS011;8570;52.380;4.654;2022-09-09T09:18:56;9.70;;;4.50;;
16906;SDS011;8570;52.380;4.654;2022-09-09T09:23:59;13.10;;;4.43;;
16906;SDS011;8570;52.380;4.654;2022-09-09T09:29:03;104.50;;;10.55;;
16906;SDS011;8570;52.380;4.654;2022-09-09T09:34:13;13.93;;;4.82;;
16906;SDS011;8570;52.380;4.654;2022-09-09T09:39:23;10.07;;;4.63;;
16906;SDS011;8570;52.380;4.654;2022-09-09T09:44:26;8.80;;;4.22;;
16906;SDS011;8570;52.380;4.654;2022-09-09T09:49:29;11.55;;;3.85;;
16906;SDS011;8570;52.380;4.654;2022-09-09T09:54:37;6.57;;;3.50;;
16906;SDS011;8570;52.380;4.654;2022-09-09T09:59:40;11.80;;;4.50;;
16906;SDS011;8570;52.380;4.654;2022-09-09T10:04:43;8.05;;;4.28;;
16906;SDS011;8570;52.380;4.654;2022-09-09T10:09:48;12.95;;;4.88;;
16906;SDS011;8570;52.380;4.654;2022-09-09T10:14:58;8.38;;;4.35;;
16906;SDS011;8570;52.380;4.654;2022-09-09T10:20:17;10.98;;;4.05;;
16906;SDS011;8570;52.380;4.654;2022-09-09T10:25:33;11.73;;;4.10;;
16906;SDS011;8570;52.380;4.654;2022-09-09T10:30:47;9.63;;;3.60;;
16906;SDS011;8570;52.380;4.654;2022-09-09T10:36:02;11.63;;;3.53;;
16906;SDS011;8570;52.380;4.654;2022-09-09T10:41:14;12.70;;;3.83;;
16906;SDS011;8570;52.380;4.654;2022-09-09T10:46:21;9.73;;;3.53;;
16906;SDS011;8570;52.380;4.654;2022-09-09T10:51:33;7.70;;;3.25;;
16906;SDS011;8570;52.380;4.654;2022-09-09T10:56:44;8.98;;;3.10;;
16906;SDS011;8570;52.380;4.654;2022-09-09T11:01:57;8.95;;;3.15;;
16906;SDS011;8570;52.380;4.654;2022-09-09T11:07:05;8.90;;;3.50;;
16906;SDS011;8570;52.380;4.654;2022-09-09T11:12:11;6.80;;;3.20;;
16906;SDS011;8570;52.380;4.654;2022-09-09T11:17:26;11.82;;;3.38;;
16906;SDS011;8570;52.380;4.654;2022-09-09T11:22:37;7.72;;;3.28;;
16906;SDS011;8570;52.380;4.654;2022-09-09T11:27:49;7.20;;;3.47;;
16906;SDS011;8570;52.380;4.654;2022-09-09T11:38:42;6.80;;;3.42;;
16906;SDS011;8570;52.380;4.654;2022-09-09T11:43:48;8.93;;;3.40;;
16906;SDS011;8570;52.380;4.654;2022-09-09T11:48:58;6.28;;;3.08;;
16906;SDS011;8570;52.380;4.654;2022-09-09T11:54:02;9.38;;;3.28;;
16906;SDS011;8570;52.380;4.654;2022-09-09T11:59:26;5.25;;;3.20;;
16906;SDS011;8570;52.380;4.654;2022-09-09T12:04:33;6.65;;;2.42;;
16906;SDS011;8570;52.380;4.654;2022-09-09T12:09:43;5.82;;;2.63;;
16906;SDS011;8570;52.380;4.654;2022-09-09T12:14:56;4.80;;;2.35;;
16906;SDS011;8570;52.380;4.654;2022-09-09T12:20:02;11.68;;;2.65;;
16906;SDS011;8570;52.380;4.654;2022-09-09T12:25:14;4.80;;;2.40;;
16906;SDS011;8570;52.380;4.654;2022-09-09T12:30:23;7.38;;;2.70;;
16906;SDS011;8570;52.380;4.654;2022-09-09T12:35:31;7.20;;;3.30;;
16906;SDS011;8570;52.380;4.654;2022-09-09T12:40:34;5.22;;;2.90;;
16906;SDS011;8570;52.380;4.654;2022-09-09T12:45:37;9.40;;;5.57;;
16906;SDS011;8570;52.380;4.654;2022-09-09T12:50:43;8.98;;;4.10;;
16906;SDS011;8570;52.380;4.654;2022-09-09T12:55:49;6.55;;;3.67;;
16906;SDS011;8570;52.380;4.654;2022-09-09T13:00:54;3.83;;;3.03;;
16906;SDS011;8570;52.380;4.654;2022-09-09T13:05:57;5.85;;;3.35;;
16906;SDS011;8570;52.380;4.654;2022-09-09T13:11:02;4.93;;;3.10;;
16906;SDS011;8570;52.380;4.654;2022-09-09T13:16:19;7.40;;;3.50;;
16906;SDS011;8570;52.380;4.654;2022-09-09T13:21:30;5.13;;;3.00;;
16906;SDS011;8570;52.380;4.654;2022-09-09T13:26:34;5.03;;;3.38;;
16906;SDS011;8570;52.380;4.654;2022-09-09T13:31:40;4.78;;;3.50;;
16906;SDS011;8570;52.380;4.654;2022-09-09T13:36:46;7.45;;;3.42;;
16906;SDS011;8570;52.380;4.654;2022-09-09T13:41:49;9.05;;;4.18;;
16906;SDS011;8570;52.380;4.654;2022-09-09T13:47:04;5.43;;;3.08;;
16906;SDS011;8570;52.380;4.654;2022-09-09T13:52:11;7.47;;;2.83;;
16906;SDS011;8570;52.380;4.654;2022-09-09T13:57:15;6.70;;;3.28;;
16906;SDS011;8570;52.380;4.654;2022-09-09T14:02:20;6.88;;;3.13;;
16906;SDS011;8570;52.380;4.654;2022-09-09T14:07:23;6.60;;;3.40;;
16906;SDS011;8570;52.380;4.654;2022-09-09T14:12:25;6.88;;;3.40;;
16906;SDS011;8570;52.380;4.654;2022-09-09T14:17:28;5.13;;;2.65;;
16906;SDS011;8570;52.380;4.654;2022-09-09T14:22:31;9.02;;;3.17;;
16906;SDS011;8570;52.380;4.654;2022-09-09T14:27:33;5.47;;;2.80;;
16906;SDS011;8570;52.380;4.654;2022-09-09T14:32:40;6.68;;;2.85;;
16906;SDS011;8570;52.380;4.654;2022-09-09T14:37:42;4.65;;;2.80;;
16906;SDS011;8570;52.380;4.654;2022-09-09T14:42:44;4.88;;;3.03;;
16906;SDS011;8570;52.380;4.654;2022-09-09T14:47:49;5.18;;;2.60;;
16906;SDS011;8570;52.380;4.654;2022-09-09T14:52:50;4.35;;;2.58;;
16906;SDS011;8570;52.380;4.654;2022-09-09T14:57:55;6.50;;;2.40;;
16906;SDS011;8570;52.380;4.654;2022-09-09T15:02:58;5.32;;;2.30;;
16906;SDS011;8570;52.380;4.654;2022-09-09T15:08:01;6.70;;;2.13;;
16906;SDS011;8570;52.380;4.654;2022-09-09T15:13:03;6.20;;;2.05;;
16906;SDS011;8570;52.380;4.654;2022-09-09T15:18:06;6.85;;;1.90;;
16906;SDS011;8570;52.380;4.654;2022-09-09T15:23:08;6.63;;;1.90;;
16906;SDS011;8570;52.380;4.654;2022-09-09T15:28:11;8.10;;;2.20;;
16906;SDS011;8570;52.380;4.654;2022-09-09T15:33:14;5.07;;;2.13;;
16906;SDS011;8570;52.380;4.654;2022-09-09T15:38:16;6.38;;;2.50;;
16906;SDS011;8570;52.380;4.654;2022-09-09T15:43:19;6.20;;;2.45;;
16906;SDS011;8570;52.380;4.654;2022-09-09T15:48:22;7.78;;;2.38;;
16906;SDS011;8570;52.380;4.654;2022-09-09T15:53:32;7.85;;;2.40;;
16906;SDS011;8570;52.380;4.654;2022-09-09T15:58:34;5.38;;;2.13;;
16906;SDS011;8570;52.380;4.654;2022-09-09T16:03:38;5.47;;;1.73;;
16906;SDS011;8570;52.380;4.654;2022-09-09T16:08:46;6.68;;;2.20;;
16906;SDS011;8570;52.380;4.654;2022-09-09T16:13:50;8.82;;;2.25;;
16906;SDS011;8570;52.380;4.654;2022-09-09T16:18:55;6.53;;;1.77;;
16906;SDS011;8570;52.380;4.654;2022-09-09T16:23:59;5.10;;;2.10;;
16906;SDS011;8570;52.380;4.654;2022-09-09T16:29:02;6.80;;;2.40;;
16906;SDS011;8570;52.380;4.654;2022-09-09T16:34:06;7.10;;;2.60;;
16906;SDS011;8570;52.380;4.654;2022-09-09T16:39:08;6.63;;;2.35;;
16906;SDS011;8570;52.380;4.654;2022-09-09T16:44:12;9.32;;;2.35;;
16906;SDS011;8570;52.380;4.654;2022-09-09T16:49:16;4.22;;;2.25;;
16906;SDS011;8570;52.380;4.654;2022-09-09T16:54:18;7.03;;;2.60;;
16906;SDS011;8570;52.380;4.654;2022-09-09T16:59:20;5.30;;;2.47;;
16906;SDS011;8570;52.380;4.654;2022-09-09T17:04:26;12.10;;;3.33;;
16906;SDS011;8570;52.380;4.654;2022-09-09T17:09:28;6.88;;;2.70;;
16906;SDS011;8570;52.380;4.654;2022-09-09T17:14:31;6.70;;;2.35;;
16906;SDS011;8570;52.380;4.654;2022-09-09T17:19:34;16.67;;;3.15;;
16906;SDS011;8570;52.380;4.654;2022-09-09T17:24:36;16.00;;;3.85;;
16906;SDS011;8570;52.380;4.654;2022-09-09T17:29:40;18.05;;;4.15;;
16906;SDS011;8570;52.380;4.654;2022-09-09T17:34:44;11.15;;;2.63;;
16906;SDS011;8570;52.380;4.654;2022-09-09T17:39:45;9.50;;;3.38;;
16906;SDS011;8570;52.380;4.654;2022-09-09T17:44:47;8.88;;;3.03;;
16906;SDS011;8570;52.380;4.654;2022-09-09T17:49:51;6.38;;;2.72;;
16906;SDS011;8570;52.380;4.654;2022-09-09T17:54:52;8.18;;;2.83;;
16906;SDS011;8570;52.380;4.654;2022-09-09T17:59:56;5.45;;;2.45;;
16906;SDS011;8570;52.380;4.654;2022-09-09T18:04:59;6.07;;;3.00;;
16906;SDS011;8570;52.380;4.654;2022-09-09T18:10:02;7.63;;;3.25;;
16906;SDS011;8570;52.380;4.654;2022-09-09T18:15:04;8.68;;;3.53;;
16906;SDS011;8570;52.380;4.654;2022-09-09T18:20:09;10.00;;;3.80;;
16906;SDS011;8570;52.380;4.654;2022-09-09T18:25:11;10.45;;;3.83;;
16906;SDS011;8570;52.380;4.654;2022-09-09T18:30:13;8.37;;;4.30;;
16906;SDS011;8570;52.380;4.654;2022-09-09T18:35:16;8.23;;;4.10;;
16906;SDS011;8570;52.380;4.654;2022-09-09T18:40:18;7.45;;;4.07;;
16906;SDS011;8570;52.380;4.654;2022-09-09T18:45:19;11.98;;;4.40;;
16906;SDS011;8570;52.380;4.654;2022-09-09T18:50:23;8.23;;;5.35;;
16906;SDS011;8570;52.380;4.654;2022-09-09T18:55:24;9.05;;;5.00;;
16906;SDS011;8570;52.380;4.654;2022-09-09T19:00:27;14.13;;;5.78;;
16906;SDS011;8570;52.380;4.654;2022-09-09T19:05:31;11.05;;;6.03;;
16906;SDS011;8570;52.380;4.654;2022-09-09T19:10:34;13.55;;;7.20;;
16906;SDS011;8570;52.380;4.654;2022-09-09T19:15:36;10.60;;;6.85;;
16906;SDS011;8570;52.380;4.654;2022-09-09T19:20:40;14.90;;;10.32;;
16906;SDS011;8570;52.380;4.654;2022-09-09T19:25:42;11.10;;;6.50;;
16906;SDS011;8570;52.380;4.654;2022-09-09T19:30:44;8.18;;;6.18;;
16906;SDS011;8570;52.380;4.654;2022-09-09T19:35:56;10.88;;;5.38;;
16906;SDS011;8570;52.380;4.654;2022-09-09T19:41:01;11.25;;;5.40;;
16906;SDS011;8570;52.380;4.654;2022-09-09T19:46:06;9.65;;;6.15;;
16906;SDS011;8570;52.380;4.654;2022-09-09T19:51:12;7.13;;;4.47;;
16906;SDS011;8570;52.380;4.654;2022-09-09T19:56:15;8.15;;;4.30;;
16906;SDS011;8570;52.380;4.654;2022-09-09T20:01:19;10.10;;;4.03;;
16906;SDS011;8570;52.380;4.654;2022-09-09T20:06:24;6.43;;;4.03;;
16906;SDS011;8570;52.380;4.654;2022-09-09T20:11:27;9.55;;;4.68;;
16906;SDS011;8570;52.380;4.654;2022-09-09T20:16:29;15.02;;;5.18;;
16906;SDS011;8570;52.380;4.654;2022-09-09T20:21:34;8.10;;;4.20;;
16906;SDS011;8570;52.380;4.654;2022-09-09T20:26:37;10.32;;;4.05;;
16906;SDS011;8570;52.380;4.654;2022-09-09T20:31:39;12.95;;;4.65;;
16906;SDS011;8570;52.380;4.654;2022-09-09T20:36:44;14.65;;;5.30;;
16906;SDS011;8570;52.380;4.654;2022-09-09T20:41:46;10.70;;;3.72;;
16906;SDS011;8570;52.380;4.654;2022-09-09T20:46:50;5.43;;;2.20;;
16906;SDS011;8570;52.380;4.654;2022-09-09T20:51:55;5.68;;;2.40;;
16906;SDS011;8570;52.380;4.654;2022-09-09T20:56:57;7.28;;;2.72;;
16906;SDS011;8570;52.380;4.654;2022-09-09T21:02:00;10.85;;;3.08;;
16906;SDS011;8570;52.380;4.654;2022-09-09T21:07:03;7.05;;;2.70;;
16906;SDS011;8570;52.380;4.654;2022-09-09T21:12:06;6.35;;;3.17;;
16906;SDS011;8570;52.380;4.654;2022-09-09T21:17:10;6.35;;;3.15;;
16906;SDS011;8570;52.380;4.654;2022-09-09T21:22:13;6.30;;;3.38;;
16906;SDS011;8570;52.380;4.654;2022-09-09T21:27:15;9.23;;;3.53;;
16906;SDS011;8570;52.380;4.654;2022-09-09T21:32:17;6.68;;;3.40;;
16906;SDS011;8570;52.380;4.654;2022-09-09T21:37:21;9.88;;;3.80;;
16906;SDS011;8570;52.380;4.654;2022-09-09T21:42:23;5.70;;;3.08;;
16906;SDS011;8570;52.380;4.654;2022-09-09T21:47:25;7.63;;;3.85;;
16906;SDS011;8570;52.380;4.654;2022-09-09T21:52:28;6.43;;;3.80;;
16906;SDS011;8570;52.380;4.654;2022-09-09T21:57:30;9.02;;;4.03;;
16906;SDS011;8570;52.380;4.654;2022-09-09T22:02:35;11.50;;;5.03;;
16906;SDS011;8570;52.380;4.654;2022-09-09T22:07:38;9.60;;;5.53;;
16906;SDS011;8570;52.380;4.654;2022-09-09T22:12:40;11.90;;;6.00;;
16906;SDS011;8570;52.380;4.654;2022-09-09T22:17:42;8.60;;;5.97;;
16906;SDS011;8570;52.380;4.654;2022-09-09T22:22:46;13.57;;;6.53;;
16906;SDS011;8570;52.380;4.654;2022-09-09T22:27:48;16.25;;;7.00;;
16906;SDS011;8570;52.380;4.654;2022-09-09T22:32:52;12.77;;;7.10;;
16906;SDS011;8570;52.380;4.654;2022-09-09T22:37:55;13.43;;;7.15;;
16906;SDS011;8570;52.380;4.654;2022-09-09T22:42:57;13.48;;;6.88;;
16906;SDS011;8570;52.380;4.654;2022-09-09T22:47:59;14.23;;;8.18;;
16906;SDS011;8570;52.380;4.654;2022-09-09T22:53:05;17.98;;;8.65;;
16906;SDS011;8570;52.380;4.654;2022-09-09T22:58:08;12.23;;;7.53;;
16906;SDS011;8570;52.380;4.654;2022-09-09T23:03:10;10.32;;;6.10;;
16906;SDS011;8570;52.380;4.654;2022-09-09T23:08:13;9.98;;;5.28;;
16906;SDS011;8570;52.380;4.654;2022-09-09T23:13:17;6.55;;;3.50;;
16906;SDS011;8570;52.380;4.654;2022-09-09T23:18:19;6.45;;;3.45;;
16906;SDS011;8570;52.380;4.654;2022-09-09T23:23:25;7.50;;;3.42;;
16906;SDS011;8570;52.380;4.654;2022-09-09T23:28:28;5.88;;;3.70;;
16906;SDS011;8570;52.380;4.654;2022-09-09T23:33:31;4.82;;;3.60;;
16906;SDS011;8570;52.380;4.654;2022-09-09T23:38:38;7.63;;;4.10;;
16906;SDS011;8570;52.380;4.654;2022-09-09T23:43:40;7.97;;;4.20;;
16906;SDS011;8570;52.380;4.654;2022-09-09T23:48:44;9.27;;;5.70;;
16906;SDS011;8570;52.380;4.654;2022-09-09T23:53:52;9.57;;;6.65;;
16906;SDS011;8570;52.380;4.654;2022-09-09T23:58:56;10.73;;;7.32;;
